Time;durP1;ratioP1;P1;durP2;ratioP2;P2;SDS_P1;SDS_P2;PMS_P1;PMS_P2;Temp;Humidity;BMP_temperature;BMP_pressure;BME280_temperature;BME280_humidity;BME280_pressure;Samples;Min_cycle;Max_cycle;Signal;HPM_P1;HPM_P2
2024/04/25 00:01:41;;;;;;;0.60;0.40;;;5.70;99.90;;;;;;6374476;22;20004;-66
2024/04/25 00:04:07;;;;;;;1.40;0.32;;;5.60;99.90;;;;;;6373767;22;20003;-66
2024/04/25 00:06:33;;;;;;;0.45;0.30;;;5.60;99.90;;;;;;6372217;22;20086;-66
2024/04/25 00:08:58;;;;;;;1.58;0.63;;;5.60;99.90;;;;;;6373832;22;20015;-66
2024/04/25 00:11:26;;;;;;;1.13;0.32;;;5.60;99.90;;;;;;6371741;22;20011;-66
2024/04/25 00:13:53;;;;;;;0.80;0.30;;;5.60;99.90;;;;;;6372525;22;20011;-66
2024/04/25 00:16:20;;;;;;;0.65;0.30;;;5.60;99.90;;;;;;6372492;22;20031;-66
2024/04/25 00:18:46;;;;;;;1.23;0.40;;;5.50;99.90;;;;;;6372674;22;20004;-66
2024/04/25 00:21:12;;;;;;;0.77;0.30;;;5.50;99.90;;;;;;6373876;22;20003;-66
2024/04/25 00:23:37;;;;;;;0.63;0.20;;;5.50;99.90;;;;;;6373097;22;20104;-66
2024/04/25 00:26:10;;;;;;;1.42;0.50;;;5.50;99.90;;;;;;6372612;22;20017;-66
2024/04/25 00:28:36;;;;;;;1.17;0.22;;;5.60;99.90;;;;;;6371528;22;20422;-66
2024/04/25 00:31:02;;;;;;;1.40;0.22;;;5.60;99.90;;;;;;6373533;22;20022;-66
2024/04/25 00:33:28;;;;;;;1.95;0.43;;;5.50;99.90;;;;;;6371614;22;19999;-66
2024/04/25 00:35:53;;;;;;;4.07;0.43;;;5.50;99.90;;;;;;6373884;22;20017;-66
2024/04/25 00:38:21;;;;;;;1.33;0.47;;;5.60;99.90;;;;;;6372848;22;20030;-66
2024/04/25 00:40:47;;;;;;;3.33;0.52;;;5.50;99.90;;;;;;6373152;22;20078;-66
2024/04/25 00:43:13;;;;;;;3.47;0.40;;;5.50;99.90;;;;;;6373317;22;20018;-66
2024/04/25 00:45:39;;;;;;;1.88;0.30;;;5.50;99.90;;;;;;6372429;22;20003;-66
2024/04/25 00:48:26;;;;;;;4.25;1.15;;;5.60;99.90;;;;;;6337335;22;20022;-66
2024/04/25 00:50:53;;;;;;;5.72;0.40;;;5.50;99.90;;;;;;6371218;22;20011;-66
2024/04/25 00:53:19;;;;;;;3.97;0.68;;;5.50;99.90;;;;;;6374010;22;20008;-66
2024/04/25 00:55:47;;;;;;;3.83;0.60;;;5.60;99.90;;;;;;6371329;22;20014;-66
2024/04/25 00:58:14;;;;;;;2.50;0.50;;;5.50;99.90;;;;;;6372928;22;20017;-66
2024/04/25 01:00:45;;;;;;;6.03;0.90;;;5.60;99.90;;;;;;6372562;22;20431;-66
2024/04/25 01:03:13;;;;;;;4.55;0.70;;;5.50;99.90;;;;;;6374205;22;20003;-66
2024/04/25 01:05:41;;;;;;;4.57;1.02;;;5.50;99.90;;;;;;6373498;22;20059;-66
2024/04/25 01:08:08;;;;;;;2.20;0.38;;;5.50;99.90;;;;;;6373249;22;20013;-66
2024/04/25 01:10:34;;;;;;;6.22;0.70;;;5.60;99.90;;;;;;6372090;22;20220;-66
2024/04/25 01:13:00;;;;;;;3.25;0.40;;;5.50;99.90;;;;;;6373321;22;20003;-66
2024/04/25 01:15:26;;;;;;;3.10;0.40;;;5.50;99.90;;;;;;6371029;22;19999;-66
2024/04/25 01:17:53;;;;;;;2.80;0.68;;;5.50;99.90;;;;;;6370127;22;20047;-66
2024/04/25 01:20:18;;;;;;;2.55;0.60;;;5.50;99.90;;;;;;6373029;22;20011;-66
2024/04/25 01:22:48;;;;;;;2.85;0.50;;;5.50;99.90;;;;;;6372089;22;20425;-66
2024/04/25 01:25:14;;;;;;;4.78;0.55;;;5.50;99.90;;;;;;6373273;22;20003;-66
2024/04/25 01:27:41;;;;;;;5.68;1.10;;;5.40;99.90;;;;;;6371910;22;20010;-66
2024/04/25 01:30:09;;;;;;;4.05;0.88;;;5.50;99.90;;;;;;6372920;22;20381;-66
2024/04/25 01:32:36;;;;;;;3.55;0.50;;;5.40;99.90;;;;;;6373155;22;20015;-66
2024/04/25 01:35:05;;;;;;;3.60;0.52;;;5.50;99.90;;;;;;6372817;22;20003;-66
2024/04/25 01:37:31;;;;;;;5.53;0.68;;;5.40;99.90;;;;;;6371354;22;20079;-66
2024/04/25 01:39:57;;;;;;;6.18;0.50;;;5.40;99.90;;;;;;6371371;22;20610;-66
2024/04/25 01:42:23;;;;;;;4.63;0.88;;;5.40;99.90;;;;;;6373173;22;20084;-66
2024/04/25 01:44:48;;;;;;;2.63;0.43;;;5.30;99.90;;;;;;6372870;22;20446;-66
2024/04/25 01:47:14;;;;;;;5.28;0.60;;;5.30;99.90;;;;;;6374471;22;20003;-66
2024/04/25 01:49:40;;;;;;;4.25;0.60;;;5.30;99.90;;;;;;6374014;22;20003;-64
2024/04/25 01:52:05;;;;;;;3.03;0.63;;;5.30;99.90;;;;;;6374839;22;19999;-66
2024/04/25 01:54:31;;;;;;;4.72;0.50;;;5.20;99.90;;;;;;6373852;22;20448;-66
2024/04/25 01:56:57;;;;;;;3.75;0.47;;;5.20;99.90;;;;;;6375249;22;20003;-66
2024/04/25 01:59:23;;;;;;;5.00;0.63;;;5.20;99.90;;;;;;6373821;22;20415;-66
2024/04/25 02:01:49;;;;;;;6.45;0.50;;;5.30;99.90;;;;;;6374358;22;20046;-66
2024/04/25 02:04:15;;;;;;;5.22;0.90;;;5.20;99.90;;;;;;6373030;22;20007;-66
2024/04/25 02:06:41;;;;;;;3.45;0.47;;;5.30;99.90;;;;;;6374980;22;20014;-66
2024/04/25 02:09:07;;;;;;;4.35;0.80;;;5.20;99.90;;;;;;6373524;22;20051;-66
2024/04/25 02:11:33;;;;;;;5.75;0.50;;;5.30;99.90;;;;;;6374766;22;20003;-66
2024/04/25 02:13:59;;;;;;;5.97;0.90;;;5.30;99.90;;;;;;6373622;22;20018;-66
2024/04/25 02:16:25;;;;;;;6.30;0.77;;;5.30;99.90;;;;;;6374910;22;20411;-66
2024/04/25 02:18:51;;;;;;;3.83;0.95;;;5.40;99.90;;;;;;6375291;22;20014;-66
2024/04/25 02:26:46;;;;;;;6.25;0.98;;;5.40;99.90;;;;;;6375230;22;20074;-66
2024/04/25 02:29:11;;;;;;;4.90;1.00;;;5.40;99.90;;;;;;6372385;22;20011;-66
2024/04/25 02:31:40;;;;;;;4.97;0.68;;;5.40;99.90;;;;;;6373871;22;20007;-66
2024/04/25 02:34:09;;;;;;;4.35;1.42;;;5.40;99.90;;;;;;6375297;22;20396;-66
2024/04/25 02:36:38;;;;;;;5.93;0.40;;;5.40;99.90;;;;;;6375406;22;20323;-66
2024/04/25 02:39:23;;;;;;;2.95;0.70;;;5.40;99.90;;;;;;6375082;22;20358;-66
2024/04/25 02:41:49;;;;;;;7.88;1.08;;;5.30;99.90;;;;;;6374550;22;20003;-66
2024/04/25 02:44:15;;;;;;;5.60;0.73;;;5.30;99.90;;;;;;6375324;22;20003;-66
2024/04/25 02:46:41;;;;;;;5.28;0.50;;;5.30;99.90;;;;;;6375060;22;20375;-66
2024/04/25 02:49:07;;;;;;;3.08;0.47;;;5.20;99.90;;;;;;6375074;22;20087;-66
2024/04/25 02:51:33;;;;;;;3.53;0.63;;;5.20;99.90;;;;;;6374640;22;20075;-66
2024/04/25 02:54:06;;;;;;;4.57;0.50;;;5.40;99.90;;;;;;6374964;22;20449;-66
2024/04/25 02:56:32;;;;;;;6.22;0.80;;;5.10;99.90;;;;;;6374862;22;19999;-66
2024/04/25 02:58:57;;;;;;;4.85;0.63;;;5.10;99.90;;;;;;6374490;22;20407;-66
2024/04/25 03:01:23;;;;;;;6.65;0.80;;;5.10;99.90;;;;;;6374596;22;20212;-66
2024/04/25 03:03:49;;;;;;;2.67;0.60;;;5.10;99.90;;;;;;6332123;22;20014;-66
2024/04/25 03:06:34;;;;;;;4.90;0.50;;;5.10;99.90;;;;;;6339136;22;20396;-66
2024/04/25 03:09:00;;;;;;;4.97;0.65;;;5.10;99.90;;;;;;6374976;22;20190;-66
2024/04/25 03:11:45;;;;;;;5.50;0.63;;;5.00;99.90;;;;;;6339296;22;20433;-66
2024/04/25 03:14:29;;;;;;;5.25;0.90;;;5.00;99.90;;;;;;6375107;22;20327;-66
2024/04/25 03:16:56;;;;;;;7.88;0.80;;;5.00;99.90;;;;;;6374947;22;20003;-66
2024/04/25 03:19:23;;;;;;;4.65;0.70;;;5.00;99.90;;;;;;6374798;22;20047;-66
2024/04/25 03:21:48;;;;;;;10.27;1.23;;;5.00;99.90;;;;;;6374561;22;20010;-66
2024/04/25 03:24:14;;;;;;;5.65;0.80;;;5.00;99.90;;;;;;6375051;22;20003;-66
2024/04/25 03:26:40;;;;;;;4.55;0.88;;;5.00;99.90;;;;;;6375022;22;20003;-66
2024/04/25 03:29:16;;;;;;;6.00;0.77;;;5.00;99.90;;;;;;6372803;22;20041;-66
2024/04/25 03:31:48;;;;;;;14.85;1.27;;;5.00;99.90;;;;;;6372926;22;20099;-66
2024/04/25 03:34:14;;;;;;;6.05;0.80;;;5.00;99.90;;;;;;6374937;22;19999;-66
2024/04/25 03:36:40;;;;;;;6.28;0.70;;;4.90;99.90;;;;;;6374740;22;20013;-66
2024/04/25 03:39:26;;;;;;;10.32;0.85;;;4.90;99.90;;;;;;6339036;22;20010;-66
2024/04/25 03:41:51;;;;;;;7.35;1.13;;;4.80;99.90;;;;;;6331863;22;20011;-66
2024/04/25 03:44:18;;;;;;;5.88;1.35;;;4.80;99.90;;;;;;6374444;22;20024;-66
2024/04/25 03:46:45;;;;;;;5.63;0.68;;;4.80;99.90;;;;;;6374457;22;20311;-66
2024/04/25 03:49:11;;;;;;;5.93;0.50;;;4.70;99.90;;;;;;6374234;22;20003;-66
2024/04/25 03:51:54;;;;;;;6.35;0.50;;;4.70;99.90;;;;;;6374487;22;20008;-66
2024/04/25 03:54:20;;;;;;;9.10;0.80;;;4.70;99.90;;;;;;6374482;22;20343;-66
2024/04/25 03:56:52;;;;;;;8.23;0.90;;;4.70;99.90;;;;;;6375144;22;20019;-66
2024/04/25 03:59:18;;;;;;;4.53;0.88;;;4.60;99.90;;;;;;6374498;22;20078;-66
2024/04/25 04:01:44;;;;;;;8.90;1.70;;;4.60;99.90;;;;;;6374269;22;20003;-66
2024/04/25 04:04:10;;;;;;;6.65;0.90;;;4.60;99.90;;;;;;6374105;22;20011;-66
2024/04/25 04:06:41;;;;;;;4.97;0.80;;;4.60;99.90;;;;;;6374496;22;20081;-66
2024/04/25 04:09:07;;;;;;;8.85;0.75;;;4.50;99.90;;;;;;6373884;22;20007;-66
2024/04/25 04:11:52;;;;;;;11.95;1.17;;;4.60;99.90;;;;;;6338597;22;20147;-66
2024/04/25 04:14:18;;;;;;;7.80;0.85;;;4.50;99.90;;;;;;6374434;22;20011;-66
2024/04/25 04:16:44;;;;;;;4.53;0.50;;;4.50;99.90;;;;;;6374325;22;20487;-66
2024/04/25 04:19:29;;;;;;;7.07;1.10;;;4.50;99.90;;;;;;6338280;22;20010;-66
2024/04/25 04:21:56;;;;;;;7.32;0.88;;;4.50;99.90;;;;;;6373149;22;20339;-66
2024/04/25 04:24:22;;;;;;;7.93;0.98;;;4.40;99.90;;;;;;6374466;22;20003;-66
2024/04/25 04:26:47;;;;;;;10.88;0.98;;;4.50;99.90;;;;;;6374133;22;20004;-66
2024/04/25 04:29:13;;;;;;;9.77;1.15;;;4.40;99.90;;;;;;6374249;22;20014;-66
2024/04/25 04:31:39;;;;;;;7.63;1.00;;;4.50;99.90;;;;;;6373788;22;20018;-66
2024/04/25 04:34:05;;;;;;;13.52;1.17;;;4.50;99.90;;;;;;6373759;22;20003;-66
2024/04/25 04:36:34;;;;;;;7.78;1.30;;;4.40;99.90;;;;;;6373851;22;20003;-66
2024/04/25 04:39:02;;;;;;;9.77;1.30;;;4.40;99.90;;;;;;6373843;22;20299;-66
2024/04/25 04:41:27;;;;;;;8.23;0.73;;;4.50;99.90;;;;;;6372836;22;20018;-65
2024/04/25 04:43:53;;;;;;;5.95;0.90;;;4.50;99.90;;;;;;6373758;22;20003;-65
2024/04/25 04:46:19;;;;;;;8.57;1.17;;;4.50;99.90;;;;;;6372853;22;20018;-66
2024/04/25 04:48:48;;;;;;;6.22;1.15;;;4.70;99.90;;;;;;6374007;22;20318;-66
2024/04/25 04:51:14;;;;;;;5.97;0.60;;;4.90;99.90;;;;;;6373385;22;20086;-66
2024/04/25 04:53:40;;;;;;;5.78;0.77;;;5.00;99.90;;;;;;6374244;22;20017;-66
2024/04/25 04:56:06;;;;;;;4.70;0.88;;;5.00;99.90;;;;;;6373975;22;20003;-66
2024/04/25 04:58:33;;;;;;;6.78;0.85;;;5.00;99.90;;;;;;6374060;22;20011;-66
2024/04/25 05:01:00;;;;;;;6.03;1.27;;;5.00;99.90;;;;;;6373741;22;20015;-66
2024/04/25 05:03:26;;;;;;;8.68;1.13;;;5.00;99.90;;;;;;6373752;22;20022;-66
2024/04/25 05:05:51;;;;;;;5.22;1.02;;;5.00;99.90;;;;;;6373721;22;20355;-66
2024/04/25 05:08:17;;;;;;;5.65;0.93;;;5.10;99.90;;;;;;6371384;22;20047;-66
2024/04/25 05:10:43;;;;;;;4.82;0.68;;;5.10;99.90;;;;;;6373158;22;20381;-66
2024/04/25 05:13:09;;;;;;;5.35;1.38;;;5.10;99.90;;;;;;6373931;22;20014;-66
2024/04/25 05:15:36;;;;;;;6.90;1.02;;;5.10;99.90;;;;;;6373760;22;20088;-66
2024/04/25 05:18:03;;;;;;;7.97;1.10;;;5.10;99.90;;;;;;6372391;22;20003;-66
2024/04/25 05:20:29;;;;;;;4.10;0.70;;;5.20;99.90;;;;;;6373277;22;20307;-66
2024/04/25 05:22:56;;;;;;;7.43;1.02;;;5.30;99.90;;;;;;6373000;22;20035;-66
2024/04/25 05:25:23;;;;;;;9.15;0.98;;;5.40;99.90;;;;;;6373383;22;20007;-66
2024/04/25 05:27:48;;;;;;;7.47;1.23;;;5.50;99.90;;;;;;6374076;22;20018;-66
2024/04/25 05:30:15;;;;;;;6.25;1.35;;;5.60;99.90;;;;;;6372883;22;20031;-66
2024/04/25 05:32:41;;;;;;;7.60;1.10;;;5.70;99.90;;;;;;6371969;22;20078;-66
2024/04/25 05:35:07;;;;;;;7.05;1.20;;;5.90;99.90;;;;;;6372125;22;20011;-65
2024/04/25 05:37:32;;;;;;;6.30;0.95;;;5.90;99.90;;;;;;6370506;22;20021;-66
2024/04/25 05:39:58;;;;;;;6.53;1.20;;;6.00;99.90;;;;;;6368262;22;20003;-66
2024/04/25 05:42:24;;;;;;;10.38;1.00;;;6.20;99.90;;;;;;6370089;22;20014;-66
2024/04/25 05:44:50;;;;;;;9.65;1.20;;;6.30;99.90;;;;;;6371265;22;20014;-66
2024/04/25 05:47:18;;;;;;;11.13;0.88;;;6.40;99.90;;;;;;6371608;22;20015;-66
2024/04/25 05:49:45;;;;;;;5.70;1.08;;;6.50;99.90;;;;;;6373075;22;20018;-66
2024/04/25 05:52:12;;;;;;;7.35;0.98;;;6.30;99.90;;;;;;6370794;22;20368;-66
2024/04/25 05:54:38;;;;;;;3.92;0.73;;;6.30;99.90;;;;;;6373281;22;20043;-66
2024/04/25 05:57:04;;;;;;;5.35;1.10;;;6.40;99.90;;;;;;6373595;22;20017;-66
2024/04/25 05:59:30;;;;;;;7.85;1.10;;;6.30;99.90;;;;;;6370479;22;20000;-66
2024/04/25 06:01:58;;;;;;;6.45;1.15;;;6.30;99.90;;;;;;6368316;22;19999;-66
2024/04/25 06:04:24;;;;;;;8.32;1.17;;;6.30;99.90;;;;;;6360373;22;20011;-66
2024/04/25 06:06:50;;;;;;;8.20;1.80;;;6.30;99.90;;;;;;6365752;22;20083;-66
2024/04/25 06:09:16;;;;;;;5.80;1.00;;;6.30;99.90;;;;;;6365583;22;20689;-66
2024/04/25 06:11:41;;;;;;;14.32;1.58;;;6.30;99.90;;;;;;6367018;22;20079;-66
2024/04/25 06:14:07;;;;;;;11.00;1.10;;;6.30;99.90;;;;;;6370165;22;20011;-65
2024/04/25 06:16:33;;;;;;;7.07;0.93;;;6.30;99.90;;;;;;6371746;22;20003;-66
2024/04/25 06:18:59;;;;;;;5.68;1.10;;;6.30;99.90;;;;;;6371714;22;20631;-66
2024/04/25 06:21:25;;;;;;;6.32;0.40;;;6.50;99.90;;;;;;6372846;22;20014;-66
2024/04/25 06:23:52;;;;;;;6.75;1.33;;;6.50;99.90;;;;;;6370686;22;20031;-66
2024/04/25 06:26:18;;;;;;;6.65;1.15;;;6.50;99.90;;;;;;6373243;22;20003;-66
2024/04/25 06:28:43;;;;;;;9.30;1.40;;;6.50;99.90;;;;;;6372827;22;20014;-66
2024/04/25 06:31:09;;;;;;;8.35;1.58;;;6.50;99.90;;;;;;6372915;22;20318;-66
2024/04/25 06:33:35;;;;;;;3.63;0.80;;;6.40;99.90;;;;;;6371316;22;20011;-66
2024/04/25 06:36:01;;;;;;;3.80;0.77;;;6.50;99.90;;;;;;6374566;22;20018;-66
2024/04/25 06:38:26;;;;;;;7.97;0.98;;;6.60;99.90;;;;;;6372947;22;20561;-66
2024/04/25 06:40:53;;;;;;;8.05;0.98;;;6.60;99.90;;;;;;6374505;22;20423;-66
2024/04/25 06:43:19;;;;;;;6.60;0.88;;;6.60;99.90;;;;;;6373381;22;20446;-67
2024/04/25 06:45:44;;;;;;;7.45;0.90;;;6.60;99.90;;;;;;6373988;22;20003;-67
2024/04/25 06:48:11;;;;;;;4.68;1.13;;;6.70;99.90;;;;;;6374637;22;20003;-67
2024/04/25 06:50:38;;;;;;;10.57;1.38;;;6.70;99.90;;;;;;6373288;22;20335;-66
2024/04/25 06:53:04;;;;;;;7.95;1.23;;;6.70;99.90;;;;;;6374782;22;20010;-67
2024/04/25 06:55:31;;;;;;;9.00;1.35;;;6.70;99.90;;;;;;6374538;22;20091;-67
2024/04/25 06:57:57;;;;;;;7.90;1.00;;;6.70;99.90;;;;;;6374282;22;19999;-66
2024/04/25 07:00:23;;;;;;;5.28;1.00;;;6.80;99.90;;;;;;6374395;22;20003;-66
2024/04/25 07:02:48;;;;;;;7.93;1.27;;;6.90;99.90;;;;;;6374000;22;20014;-66
2024/04/25 07:05:14;;;;;;;6.63;1.10;;;6.90;99.90;;;;;;6373385;22;20419;-67
2024/04/25 07:07:41;;;;;;;9.57;1.20;;;6.90;99.90;;;;;;6374994;22;20083;-67
2024/04/25 07:10:06;;;;;;;5.82;0.82;;;7.00;99.90;;;;;;6372680;22;19999;-67
2024/04/25 07:12:33;;;;;;;6.53;0.80;;;7.10;99.90;;;;;;6372932;22;20013;-67
2024/04/25 07:15:04;;;;;;;7.32;1.13;;;7.20;99.90;;;;;;6374117;22;20451;-67
2024/04/25 07:17:30;;;;;;;8.63;1.30;;;7.30;99.90;;;;;;6375393;22;20015;-67
2024/04/25 07:19:56;;;;;;;4.80;1.35;;;7.50;99.90;;;;;;6374878;22;20011;-67
2024/04/25 07:22:21;;;;;;;4.32;0.93;;;7.60;99.90;;;;;;6374511;22;20003;-67
2024/04/25 07:24:48;;;;;;;5.03;0.90;;;7.80;99.90;;;;;;6373230;22;20712;-67
2024/04/25 07:27:14;;;;;;;5.00;1.15;;;8.10;99.90;;;;;;6374713;22;20007;-67
2024/04/25 07:29:46;;;;;;;3.75;0.65;;;8.20;99.90;;;;;;6374010;22;20011;-67
2024/04/25 07:32:15;;;;;;;7.47;1.20;;;8.40;99.90;;;;;;6375001;22;20003;-67
2024/04/25 07:34:42;;;;;;;5.38;2.13;;;8.50;99.90;;;;;;6374868;22;20007;-67
2024/04/25 07:37:08;;;;;;;3.78;0.60;;;8.50;99.90;;;;;;6374786;22;20018;-67
2024/04/25 07:39:34;;;;;;;7.18;1.30;;;8.60;99.90;;;;;;6374946;22;20018;-67
2024/04/25 07:42:00;;;;;;;3.10;0.80;;;8.60;99.90;;;;;;6374364;22;20003;-66
2024/04/25 07:44:25;;;;;;;6.63;1.08;;;8.70;99.90;;;;;;6371019;22;20415;-66
2024/04/25 07:46:51;;;;;;;4.43;1.10;;;8.70;99.90;;;;;;6374840;22;20038;-66
2024/04/25 07:49:17;;;;;;;4.03;1.05;;;8.80;99.90;;;;;;6374298;22;20007;-66
2024/04/25 07:51:43;;;;;;;5.70;0.80;;;8.80;99.90;;;;;;6374753;22;20003;-67
2024/04/25 07:54:09;;;;;;;5.70;0.52;;;8.90;99.90;;;;;;6374644;22;20091;-67
2024/04/25 07:56:38;;;;;;;6.50;0.90;;;8.80;99.90;;;;;;6374697;22;20014;-67
2024/04/25 07:59:04;;;;;;;3.85;0.50;;;8.90;99.90;;;;;;6374672;22;20050;-67
2024/04/25 08:01:30;;;;;;;3.25;0.45;;;8.90;99.90;;;;;;6374391;22;20003;-67
2024/04/25 08:03:57;;;;;;;3.22;0.70;;;9.00;99.90;;;;;;6374311;22;20689;-67
2024/04/25 08:06:23;;;;;;;5.95;1.45;;;9.10;99.90;;;;;;6374395;22;20017;-66
2024/04/25 08:08:49;;;;;;;4.75;0.60;;;9.10;99.90;;;;;;6374603;22;20387;-67
2024/04/25 08:11:15;;;;;;;7.45;0.75;;;9.30;99.90;;;;;;6374304;22;20014;-67
2024/04/25 08:13:41;;;;;;;5.50;1.27;;;9.50;99.90;;;;;;6374393;22;20013;-66
2024/04/25 08:16:07;;;;;;;6.03;0.82;;;9.70;99.90;;;;;;6332277;22;20013;-67
2024/04/25 08:18:33;;;;;;;6.38;1.20;;;9.90;99.90;;;;;;6374556;22;19999;-67
2024/04/25 08:21:01;;;;;;;3.95;0.88;;;9.90;99.90;;;;;;6374299;22;20013;-67
2024/04/25 08:23:27;;;;;;;7.90;1.75;;;9.80;99.90;;;;;;6374086;22;20010;-65
2024/04/25 08:25:53;;;;;;;4.53;0.90;;;9.80;99.90;;;;;;6372070;22;20439;-67
2024/04/25 08:28:19;;;;;;;2.83;0.70;;;9.80;99.90;;;;;;6374834;22;20039;-67
2024/04/25 08:30:45;;;;;;;8.05;1.10;;;9.70;99.90;;;;;;6374863;22;20021;-66
2024/04/25 08:33:12;;;;;;;7.53;1.50;;;9.70;99.90;;;;;;6374365;22;20014;-67
2024/04/25 08:35:38;;;;;;;3.75;0.68;;;9.90;99.90;;;;;;6372297;22;20023;-67
2024/04/25 08:38:05;;;;;;;3.92;0.75;;;9.80;99.90;;;;;;6374457;22;20003;-66
2024/04/25 08:40:33;;;;;;;8.25;1.10;;;10.00;99.90;;;;;;6374357;22;20003;-66
2024/04/25 08:43:01;;;;;;;3.50;1.00;;;10.10;99.90;;;;;;6374138;22;19999;-66
2024/04/25 08:45:27;;;;;;;3.08;0.57;;;10.30;99.90;;;;;;6372192;22;20007;-66
2024/04/25 08:47:56;;;;;;;6.90;0.80;;;10.70;99.90;;;;;;6373986;22;20341;-66
2024/04/25 08:50:24;;;;;;;6.95;1.17;;;11.00;99.90;;;;;;6373703;22;20003;-66
2024/04/25 08:52:52;;;;;;;6.47;0.95;;;11.30;99.90;;;;;;6372146;22;20014;-66
2024/04/25 08:55:18;;;;;;;2.97;0.93;;;11.30;99.90;;;;;;6373810;22;20014;-66
2024/04/25 08:57:44;;;;;;;4.13;0.90;;;11.30;99.90;;;;;;6374248;22;19999;-67
2024/04/25 09:00:10;;;;;;;6.53;0.80;;;11.20;99.90;;;;;;6372071;22;20003;-67
2024/04/25 09:02:36;;;;;;;7.97;1.23;;;10.90;99.90;;;;;;6374049;22;20284;-67
2024/04/25 09:05:02;;;;;;;3.60;1.00;;;10.80;99.90;;;;;;6372865;22;20056;-66
2024/04/25 09:07:28;;;;;;;12.48;1.17;;;10.60;99.90;;;;;;6372888;22;20067;-66
2024/04/25 09:09:57;;;;;;;11.07;1.42;;;10.40;99.90;;;;;;6369263;22;19999;-66
2024/04/25 09:12:26;;;;;;;6.45;0.80;;;10.20;99.90;;;;;;6371730;22;20403;-67
2024/04/25 09:14:51;;;;;;;7.57;1.70;;;10.00;99.90;;;;;;6373000;22;20010;-67
2024/04/25 09:17:18;;;;;;;7.38;1.17;;;9.80;99.90;;;;;;6373073;22;20415;-66
2024/04/25 09:19:44;;;;;;;7.40;1.40;;;9.70;99.90;;;;;;6368836;22;20019;-66
2024/04/25 09:22:10;;;;;;;7.50;1.17;;;9.80;99.90;;;;;;6372417;22;20348;-66
2024/04/25 09:24:36;;;;;;;4.97;0.85;;;9.80;99.90;;;;;;6371802;22;20087;-66
2024/04/25 09:27:03;;;;;;;3.60;0.77;;;9.80;99.90;;;;;;6372232;22;19999;-67
2024/04/25 09:29:30;;;;;;;5.88;0.82;;;9.50;99.90;;;;;;6368691;22;20000;-67
2024/04/25 09:31:56;;;;;;;5.97;0.80;;;9.40;99.90;;;;;;6370910;22;20082;-67
2024/04/25 09:34:22;;;;;;;4.70;1.17;;;9.30;99.90;;;;;;6370880;22;20039;-67
2024/04/25 09:36:51;;;;;;;5.22;1.20;;;9.10;99.90;;;;;;6369635;22;20019;-67
2024/04/25 09:39:17;;;;;;;4.65;0.65;;;9.00;99.90;;;;;;6371660;22;20003;-66
2024/04/25 09:41:44;;;;;;;5.97;0.93;;;8.90;99.90;;;;;;6369700;22;20017;-67
2024/04/25 09:44:09;;;;;;;5.93;1.15;;;8.80;99.90;;;;;;6369713;22;20003;-67
2024/04/25 09:47:02;;;;;;;4.07;0.50;;;8.60;99.90;;;;;;6372558;22;20075;-67
2024/04/25 09:49:35;;;;;;;3.95;0.90;;;8.50;99.90;;;;;;6363252;22;20003;-67
2024/04/25 09:52:18;;;;;;;2.90;0.30;;;8.40;99.90;;;;;;6372466;22;20390;-67
2024/04/25 09:54:47;;;;;;;3.28;0.98;;;8.30;99.90;;;;;;6333091;22;20003;-67
2024/04/25 09:57:18;;;;;;;4.15;0.75;;;8.20;99.90;;;;;;6372437;22;20020;-67
2024/04/25 09:59:43;;;;;;;2.03;0.40;;;8.20;99.90;;;;;;6368387;22;20007;-67
2024/04/25 10:02:19;;;;;;;3.08;0.65;;;8.30;99.90;;;;;;6372355;22;20015;-66
2024/04/25 10:04:45;;;;;;;2.70;0.55;;;8.30;99.90;;;;;;6369269;22;20000;-67
2024/04/25 10:07:15;;;;;;;5.55;0.80;;;8.40;99.90;;;;;;6371016;22;20763;-67
2024/04/25 10:09:43;;;;;;;3.50;0.52;;;8.60;99.90;;;;;;6372621;22;20081;-67
2024/04/25 10:12:09;;;;;;;4.70;0.70;;;8.70;99.90;;;;;;6374627;22;20027;-67
2024/04/25 10:14:35;;;;;;;3.97;0.80;;;8.80;99.90;;;;;;6375293;22;20003;-67
2024/04/25 10:17:01;;;;;;;4.35;0.70;;;8.90;99.90;;;;;;6375487;22;20003;-67
2024/04/25 10:19:42;;;;;;;6.05;0.77;;;9.10;99.90;;;;;;6371123;22;20003;-67
2024/04/25 10:22:22;;;;;;;4.30;1.13;;;9.10;99.90;;;;;;6374049;22;20018;-67
2024/04/25 10:24:50;;;;;;;5.25;0.80;;;9.30;99.90;;;;;;6375625;22;20431;-67
2024/04/25 10:27:19;;;;;;;6.30;0.90;;;9.40;99.90;;;;;;6375867;22;20031;-66
2024/04/25 10:29:50;;;;;;;7.70;0.80;;;9.50;99.90;;;;;;6375089;22;20435;-67
2024/04/25 10:32:16;;;;;;;5.85;0.82;;;9.70;99.90;;;;;;6333927;22;20000;-66
2024/04/25 10:34:42;;;;;;;3.85;0.90;;;9.70;99.90;;;;;;6375019;22;20014;-66
2024/04/25 10:37:08;;;;;;;5.70;1.02;;;9.80;99.90;;;;;;6292569;22;20006;-66
2024/04/25 10:39:34;;;;;;;4.07;1.20;;;9.90;99.90;;;;;;6374084;22;20003;-67
2024/04/25 10:41:59;;;;;;;3.28;0.63;;;10.00;99.90;;;;;;6375639;22;20622;-67
2024/04/25 10:44:25;;;;;;;5.95;1.65;;;10.00;99.90;;;;;;6375254;22;20018;-67
2024/04/25 10:46:51;;;;;;;5.00;2.22;;;10.00;99.90;;;;;;6375423;22;20086;-67
2024/04/25 10:49:17;;;;;;;5.20;1.27;;;10.00;99.90;;;;;;6375256;22;20540;-66
2024/04/25 10:51:43;;;;;;;7.50;1.27;;;10.20;99.90;;;;;;6375996;22;20011;-67
2024/04/25 10:54:13;;;;;;;3.45;0.95;;;10.10;99.90;;;;;;6374081;22;20025;-67
2024/04/25 10:56:40;;;;;;;4.65;1.08;;;10.10;99.90;;;;;;6374276;22;20003;-67
2024/04/25 10:59:07;;;;;;;6.03;0.80;;;10.00;99.90;;;;;;6373589;22;20015;-67
2024/04/25 11:01:33;;;;;;;2.58;0.70;;;10.00;99.90;;;;;;6375368;22;20003;-67
2024/04/25 11:04:01;;;;;;;8.32;1.55;;;10.00;99.90;;;;;;6374469;22;20419;-67
2024/04/25 11:06:31;;;;;;;3.72;1.20;;;9.90;99.90;;;;;;6373027;22;20055;-67
2024/04/25 11:08:57;;;;;;;4.35;1.08;;;9.90;99.90;;;;;;6374870;22;20015;-67
2024/04/25 11:11:24;;;;;;;4.68;0.90;;;9.70;99.90;;;;;;6372953;22;20403;-66
2024/04/25 11:13:51;;;;;;;5.55;1.30;;;9.60;99.90;;;;;;6375245;22;20003;-66
2024/04/25 11:16:20;;;;;;;6.10;1.00;;;9.50;99.90;;;;;;6375304;22;20003;-67
2024/04/25 11:18:48;;;;;;;6.03;0.93;;;9.40;99.90;;;;;;6375091;22;20021;-66
2024/04/25 11:21:14;;;;;;;5.85;1.00;;;9.40;99.90;;;;;;6375329;22;20312;-67
2024/04/25 11:23:39;;;;;;;5.68;0.90;;;9.30;99.90;;;;;;6375488;22;20018;-67
2024/04/25 11:26:05;;;;;;;4.75;0.80;;;9.20;99.90;;;;;;6375047;22;19999;-67
2024/04/25 11:28:32;;;;;;;3.08;0.70;;;9.00;99.90;;;;;;6374543;22;20009;-67
2024/04/25 11:30:59;;;;;;;4.95;0.75;;;9.00;99.90;;;;;;6374892;22;20011;-67
2024/04/25 11:33:26;;;;;;;5.85;0.80;;;8.90;99.90;;;;;;6375447;22;20018;-67
2024/04/25 11:35:53;;;;;;;6.28;1.10;;;8.90;99.90;;;;;;6373985;22;20490;-67
2024/04/25 11:38:20;;;;;;;4.75;1.70;;;9.00;99.90;;;;;;6374546;22;20308;-67
2024/04/25 11:40:48;;;;;;;3.92;0.77;;;9.00;99.90;;;;;;6374397;22;20056;-67
2024/04/25 11:43:18;;;;;;;3.80;0.80;;;9.10;99.90;;;;;;6373370;22;20010;-67
2024/04/25 11:45:46;;;;;;;2.63;0.95;;;9.30;99.90;;;;;;6375235;22;20003;-67
2024/04/25 11:48:16;;;;;;;2.67;0.73;;;9.40;99.90;;;;;;6375100;22;20003;-67
2024/04/25 11:50:42;;;;;;;3.75;0.70;;;9.40;99.90;;;;;;6372989;22;20014;-67
2024/04/25 11:53:09;;;;;;;4.35;1.38;;;9.40;99.90;;;;;;6374926;22;20015;-67
2024/04/25 11:55:38;;;;;;;4.38;0.88;;;9.30;99.90;;;;;;6374918;22;20035;-67
2024/04/25 11:58:08;;;;;;;3.28;1.33;;;9.30;99.90;;;;;;6374796;22;20031;-67
2024/04/25 12:00:35;;;;;;;2.25;0.70;;;9.30;99.90;;;;;;6374670;22;20089;-67
2024/04/25 12:03:01;;;;;;;1.90;0.40;;;9.10;99.90;;;;;;6374996;22;20009;-67
2024/04/25 12:05:27;;;;;;;2.85;0.45;;;9.00;99.90;;;;;;6374635;22;20003;-67
2024/04/25 12:07:56;;;;;;;2.05;0.28;;;9.00;99.90;;;;;;6374758;22;20438;-67
2024/04/25 12:10:23;;;;;;;1.10;0.30;;;8.70;99.90;;;;;;6374535;22;20307;-67
2024/04/25 12:12:48;;;;;;;1.70;0.30;;;8.60;99.90;;;;;;6373442;22;20048;-67
2024/04/25 12:15:14;;;;;;;1.98;0.40;;;8.40;99.90;;;;;;6374150;22;20011;-66
2024/04/25 12:17:40;;;;;;;1.92;0.32;;;8.30;99.90;;;;;;6372922;22;20031;-67
2024/04/25 12:20:07;;;;;;;1.35;0.38;;;8.50;99.90;;;;;;6371622;22;20352;-66
2024/04/25 12:22:33;;;;;;;3.03;0.57;;;8.30;99.90;;;;;;6371472;22;20006;-67
2024/04/25 12:24:59;;;;;;;0.60;0.30;;;8.40;99.90;;;;;;6373685;22;20003;-67
2024/04/25 12:27:24;;;;;;;1.77;0.30;;;8.60;99.90;;;;;;6374014;22;20003;-67
2024/04/25 12:29:51;;;;;;;2.60;0.57;;;8.80;99.90;;;;;;6372866;22;20836;-67
2024/04/25 12:32:16;;;;;;;3.15;0.50;;;9.00;99.90;;;;;;6373430;22;20014;-67
2024/04/25 12:34:42;;;;;;;0.70;0.20;;;9.30;99.90;;;;;;6372995;22;20311;-67
2024/04/25 12:37:08;;;;;;;2.58;0.82;;;9.50;99.90;;;;;;6366884;22;20009;-67
2024/04/25 12:39:41;;;;;;;2.45;0.63;;;9.70;99.90;;;;;;6370195;22;20340;-67
2024/04/25 12:42:07;;;;;;;5.60;0.70;;;10.00;99.90;;;;;;6370268;22;20014;-67
2024/04/25 12:44:33;;;;;;;4.50;0.55;;;10.30;99.90;;;;;;6372776;22;20018;-67
2024/04/25 12:46:59;;;;;;;2.50;0.57;;;10.50;99.90;;;;;;6373668;22;20315;-67
2024/04/25 12:49:40;;;;;;;3.58;0.63;;;10.50;99.90;;;;;;6374421;22;20003;-67
2024/04/25 12:52:06;;;;;;;3.45;0.80;;;10.60;99.90;;;;;;6372598;22;20003;-67
2024/04/25 12:54:33;;;;;;;3.72;0.98;;;10.50;99.90;;;;;;6374081;22;20473;-67
2024/04/25 12:56:59;;;;;;;4.20;1.40;;;10.50;99.90;;;;;;6374642;22;20014;-67
2024/04/25 12:59:26;;;;;;;3.05;0.60;;;10.30;99.90;;;;;;6373416;22;20013;-67
2024/04/25 13:01:52;;;;;;;2.55;0.60;;;10.20;99.90;;;;;;6374400;22;20014;-67